Time;durP1;ratioP1;P1;durP2;ratioP2;P2;SDS_P1;SDS_P2;PMS_P1;PMS_P2;Temp;Humidity;BMP_temperature;BMP_pressure;BME280_temperature;BME280_humidity;BME280_pressure;Samples;Min_cycle;Max_cycle;Signal;HPM_P1;HPM_P2
2022/10/04 00:00:26;;;;;;;7.22;4.05;;;;;;;10.22;100.00;102246.94;1039656;28;20346;-83
2022/10/04 00:01:18;;;;;;;9.82;3.53;;;;;;;10.23;100.00;102250.41;1041928;28;20328;-84
2022/10/04 00:01:57;;;;;;;6.18;3.63;;;;;;;10.24;100.00;102249.41;1050167;28;20301;-83
2022/10/04 00:02:32;;;;;;;13.18;4.28;;;;;;;10.20;100.00;102248.91;1045627;28;20380;-83
2022/10/04 00:03:09;;;;;;;5.60;3.88;;;;;;;10.21;100.00;102246.09;1040664;28;20374;-83
2022/10/04 00:03:46;;;;;;;12.15;3.92;;;;;;;10.23;100.00;102245.91;1043541;28;20302;-83
2022/10/04 00:04:28;;;;;;;4.57;3.88;;;;;;;10.26;100.00;102250.06;1040409;28;20319;-83
2022/10/04 00:05:06;;;;;;;6.32;3.90;;;;;;;10.27;100.00;102241.06;1044424;28;20808;-84
2022/10/04 00:05:39;;;;;;;5.68;4.80;;;;;;;10.27;100.00;102239.22;1039308;28;20320;-83
2022/10/04 00:06:16;;;;;;;9.70;4.50;;;;;;;10.25;100.00;102237.75;1040993;28;20299;-83
2022/10/04 00:06:52;;;;;;;8.20;4.38;;;;;;;10.20;100.00;102241.78;1036391;28;20308;-83
2022/10/04 00:07:28;;;;;;;7.55;4.35;;;;;;;10.18;100.00;102241.09;1043679;28;20639;-84
2022/10/04 00:08:17;;;;;;;6.93;3.67;;;;;;;10.16;100.00;102248.44;1049706;28;20299;-84
2022/10/04 00:08:58;;;;;;;6.00;4.22;;;;;;;10.12;100.00;102241.78;1047543;28;20371;-84
2022/10/04 00:09:44;;;;;;;9.55;4.57;;;;;;;10.11;100.00;102234.81;1041085;28;20304;-83
2022/10/04 00:10:29;;;;;;;5.53;3.83;;;;;;;10.07;100.00;102235.34;1035260;28;20324;-83
2022/10/04 00:11:04;;;;;;;4.65;3.70;;;;;;;10.10;100.00;102235.00;1043740;28;20303;-83
2022/10/04 00:11:37;;;;;;;7.15;4.03;;;;;;;10.07;100.00;102236.19;1045957;28;20279;-84
2022/10/04 00:12:18;;;;;;;8.45;4.15;;;;;;;10.00;100.00;102235.25;1054666;28;20309;-84
2022/10/04 00:12:52;;;;;;;8.57;5.03;;;;;;;10.01;100.00;102234.25;1045935;28;20283;-84
2022/10/04 00:13:24;;;;;;;7.47;5.25;;;;;;;10.07;100.00;102238.84;1047597;28;20306;-83
2022/10/04 00:14:04;;;;;;;12.40;4.13;;;;;;;10.04;100.00;102231.22;1047138;28;20305;-84
2022/10/04 00:14:38;;;;;;;4.60;3.80;;;;;;;9.91;100.00;102233.66;1048709;28;20297;-84
2022/10/04 00:15:19;;;;;;;4.28;3.25;;;;;;;9.93;100.00;102228.16;1042092;28;20041;-83
2022/10/04 00:15:51;;;;;;;11.10;4.43;;;;;;;9.90;100.00;102232.00;1039503;28;20878;-84
2022/10/04 00:16:32;;;;;;;12.45;4.30;;;;;;;9.92;100.00;102224.66;1041077;28;20314;-83
2022/10/04 00:17:09;;;;;;;4.60;3.45;;;;;;;9.96;100.00;102223.31;1042550;28;20305;-84
2022/10/04 00:17:41;;;;;;;6.15;4.15;;;;;;;9.97;100.00;102226.78;1041644;28;20045;-84
2022/10/04 00:18:15;;;;;;;8.20;3.67;;;;;;;9.97;100.00;102227.63;1043519;28;20331;-84
2022/10/04 00:18:47;;;;;;;6.30;3.88;;;;;;;9.97;100.00;102224.97;1039399;28;20309;-83
2022/10/04 00:19:18;;;;;;;8.82;3.97;;;;;;;9.94;100.00;102227.97;1037882;28;20411;-83
2022/10/04 00:19:50;;;;;;;11.13;5.05;;;;;;;9.90;100.00;102226.69;1041224;28;20291;-83
2022/10/04 00:20:47;;;;;;;9.20;4.50;;;;;;;9.88;100.00;102226.03;1038624;28;20839;-83
2022/10/04 00:21:18;;;;;;;4.88;4.03;;;;;;;9.89;100.00;102223.19;1041831;28;20351;-84
2022/10/04 00:21:52;;;;;;;5.15;3.33;;;;;;;9.88;100.00;102223.38;1047189;28;20325;-83
2022/10/04 00:22:31;;;;;;;7.38;4.10;;;;;;;9.87;100.00;102221.72;1049146;28;20345;-84
2022/10/04 00:23:21;;;;;;;7.28;3.80;;;;;;;9.88;100.00;102218.06;1050741;28;20313;-83
2022/10/04 00:24:17;;;;;;;6.15;3.50;;;;;;;9.90;100.00;102216.03;1050962;28;20390;-84
2022/10/04 00:25:08;;;;;;;10.52;3.63;;;;;;;9.91;100.00;102223.03;1043516;28;20314;-83
2022/10/04 00:25:40;;;;;;;8.02;3.95;;;;;;;9.91;100.00;102217.69;1041719;28;20295;-84
2022/10/04 00:26:34;;;;;;;10.55;4.88;;;;;;;9.89;100.00;102214.38;1044400;28;20127;-83
2022/10/04 00:27:22;;;;;;;3.90;3.55;;;;;;;9.87;100.00;102217.22;1055070;28;20301;-83
2022/10/04 00:28:26;;;;;;;10.93;3.80;;;;;;;9.85;100.00;102218.38;1047958;28;20302;-84
2022/10/04 00:28:57;;;;;;;8.07;4.00;;;;;;;9.84;100.00;102211.41;1045977;28;20432;-84
2022/10/04 00:29:32;;;;;;;4.55;3.35;;;;;;;9.83;100.00;102213.25;1048362;28;20420;-83
2022/10/04 00:30:03;;;;;;;4.30;3.53;;;;;;;9.85;100.00;102226.38;1041153;28;20303;-83
2022/10/04 00:30:37;;;;;;;7.35;3.88;;;;;;;9.85;100.00;102218.38;1044232;28;20660;-83
2022/10/04 00:31:08;;;;;;;14.32;4.25;;;;;;;9.87;100.00;102227.03;1039433;28;20792;-83
2022/10/04 00:32:09;;;;;;;9.20;4.07;;;;;;;9.89;100.00;102215.22;1041080;28;20304;-83
2022/10/04 00:32:40;;;;;;;10.05;3.92;;;;;;;9.91;100.00;102215.03;1051683;28;20379;-84
2022/10/04 00:33:35;;;;;;;6.30;3.72;;;;;;;9.93;100.00;102213.03;1056587;28;20720;-83
2022/10/04 00:34:07;;;;;;;4.68;4.18;;;;;;;9.88;100.00;102215.38;1051682;28;20302;-83
2022/10/04 00:34:50;;;;;;;4.35;3.95;;;;;;;9.88;100.00;102213.56;1047288;28;20306;-84
2022/10/04 00:35:24;;;;;;;12.30;4.70;;;;;;;9.89;100.00;102214.38;1039685;28;20369;-84
2022/10/04 00:35:56;;;;;;;6.18;3.95;;;;;;;9.94;100.00;102212.00;1041240;28;20292;-83
2022/10/04 00:36:43;;;;;;;6.38;4.38;;;;;;;9.93;100.00;102213.03;1041773;28;20308;-83
2022/10/04 00:37:17;;;;;;;9.90;4.40;;;;;;;9.98;100.00;102207.97;1042687;28;20876;-83
2022/10/04 00:38:01;;;;;;;6.18;4.13;;;;;;;9.98;100.00;102205.31;1039552;28;20310;-84
2022/10/04 00:38:32;;;;;;;7.00;4.22;;;;;;;9.96;100.00;102203.84;1039374;28;20343;-84
2022/10/04 00:39:04;;;;;;;8.52;4.82;;;;;;;9.99;100.00;102204.31;1037246;28;20370;-83
2022/10/04 00:39:38;;;;;;;7.32;4.88;;;;;;;10.00;100.00;102203.31;1041010;28;20308;-83
2022/10/04 00:40:15;;;;;;;5.28;4.45;;;;;;;10.00;100.00;102205.97;1043109;28;20295;-84
2022/10/04 00:40:54;;;;;;;9.30;4.85;;;;;;;10.02;100.00;102197.81;1044544;28;20334;-83
2022/10/04 00:41:26;;;;;;;9.13;5.20;;;;;;;9.99;100.00;102204.31;1042407;28;20409;-83
2022/10/04 00:42:12;;;;;;;7.43;5.35;;;;;;;10.00;100.00;102194.50;1041778;28;20829;-83
2022/10/04 00:42:55;;;;;;;5.93;5.13;;;;;;;9.98;100.00;102186.69;1042926;28;20821;-83
2022/10/04 00:43:26;;;;;;;8.02;5.57;;;;;;;10.00;100.00;102187.34;1038864;28;20320;-83
2022/10/04 00:43:58;;;;;;;6.72;5.60;;;;;;;10.02;100.00;102185.31;1047189;28;20294;-83
2022/10/04 00:44:29;;;;;;;9.75;5.88;;;;;;;10.02;100.00;102185.31;1045426;28;20303;-83
2022/10/04 00:45:23;;;;;;;6.07;4.88;;;;;;;10.03;100.00;102194.13;1044073;28;20699;-83
2022/10/04 00:46:21;;;;;;;9.23;5.13;;;;;;;10.07;100.00;102190.09;1041260;28;20303;-83
2022/10/04 00:46:54;;;;;;;8.57;5.82;;;;;;;10.07;100.00;102185.59;1042346;28;20653;-83
2022/10/04 00:47:32;;;;;;;5.95;4.97;;;;;;;10.04;100.00;102188.63;1039292;28;20343;-84
2022/10/04 00:48:15;;;;;;;10.32;5.25;;;;;;;10.09;100.00;102188.91;1037856;28;20303;-83
2022/10/04 00:48:59;;;;;;;8.13;5.13;;;;;;;10.11;100.00;102188.72;1036833;28;20300;-83
2022/10/04 00:49:34;;;;;;;8.68;4.80;;;;;;;10.11;100.00;102186.88;1039104;28;20315;-84
2022/10/04 00:50:38;;;;;;;10.65;5.68;;;;;;;10.12;100.00;102183.22;1035227;28;20300;-83
2022/10/04 00:51:27;;;;;;;6.60;5.00;;;;;;;10.11;100.00;102186.88;1028153;28;20341;-83
2022/10/04 00:52:11;;;;;;;6.10;5.07;;;;;;;10.15;100.00;102187.38;1030153;28;20333;-83
2022/10/04 00:52:47;;;;;;;7.05;5.43;;;;;;;10.14;100.00;102185.72;1041380;28;20318;-83
2022/10/04 00:53:35;;;;;;;8.93;5.40;;;;;;;10.17;100.00;102186.19;1041858;28;20295;-84
2022/10/04 00:54:22;;;;;;;10.52;5.78;;;;;;;10.15;100.00;102187.38;1045612;28;20429;-83
2022/10/04 00:55:05;;;;;;;5.93;4.95;;;;;;;10.15;100.00;102182.88;1050700;28;20301;-83
2022/10/04 00:55:48;;;;;;;8.32;5.35;;;;;;;10.16;100.00;102184.53;1047576;28;20298;-83
2022/10/04 00:56:37;;;;;;;8.82;5.18;;;;;;;10.16;100.00;102187.22;1047422;28;20416;-84
2022/10/04 00:57:24;;;;;;;9.32;5.18;;;;;;;10.18;100.00;102181.69;1045932;28;20798;-84
2022/10/04 00:57:58;;;;;;;7.40;5.00;;;;;;;10.15;100.00;102190.88;1038442;28;20782;-84
2022/10/04 00:58:37;;;;;;;9.18;4.97;;;;;;;10.18;100.00;102187.03;1039473;28;20296;-84
2022/10/04 00:59:41;;;;;;;8.23;5.25;;;;;;;10.21;100.00;102186.69;1041563;28;20307;-83
2022/10/04 01:00:16;;;;;;;9.52;4.75;;;;;;;10.21;100.00;102181.38;1034585;28;21042;-83
2022/10/04 01:00:48;;;;;;;7.97;4.40;;;;;;;10.21;100.00;102187.50;1037530;28;20348;-83
2022/10/04 01:01:22;;;;;;;11.13;5.68;;;;;;;10.20;100.00;102185.00;1047461;28;20346;-83
2022/10/04 01:02:14;;;;;;;7.38;5.10;;;;;;;10.20;100.00;102185.88;1041844;28;20354;-83
2022/10/04 01:02:57;;;;;;;8.70;5.57;;;;;;;10.23;100.00;102183.84;1038670;28;20303;-83
2022/10/04 01:03:33;;;;;;;5.63;4.85;;;;;;;10.26;100.00;102183.47;1039494;28;20303;-83
2022/10/04 01:04:20;;;;;;;9.65;5.50;;;;;;;10.26;100.00;102183.47;1035282;28;20304;-83
2022/10/04 01:05:09;;;;;;;7.20;4.97;;;;;;;10.31;100.00;102176.59;1038282;28;20299;-82
2022/10/04 01:05:46;;;;;;;8.15;5.25;;;;;;;10.30;100.00;102179.44;1034236;28;20301;-83
2022/10/04 01:06:19;;;;;;;7.90;4.97;;;;;;;10.28;100.00;102178.78;1037475;28;20300;-82
2022/10/04 01:06:51;;;;;;;8.13;6.03;;;;;;;10.28;100.00;102176.13;1036124;28;20865;-83
2022/10/04 01:07:28;;;;;;;9.27;5.10;;;;;;;10.28;100.00;102181.47;1037506;28;20301;-84
2022/10/04 01:08:09;;;;;;;11.20;5.95;;;;;;;10.34;100.00;102176.22;1039144;28;20295;-83
2022/10/04 01:08:47;;;;;;;8.32;4.88;;;;;;;10.36;100.00;102181.38;1035203;28;20293;-83
2022/10/04 01:09:20;;;;;;;5.75;5.15;;;;;;;10.33;100.00;102174.56;1036347;28;20048;-83
2022/10/04 01:09:56;;;;;;;7.63;5.15;;;;;;;10.31;100.00;102175.78;1045070;28;20803;-83
2022/10/04 01:10:30;;;;;;;6.35;4.60;;;;;;;10.42;100.00;102178.00;1049275;28;20305;-83
2022/10/04 01:11:06;;;;;;;8.73;5.53;;;;;;;10.35;100.00;102175.22;1053370;28;20365;-83
2022/10/04 01:11:43;;;;;;;5.55;4.45;;;;;;;10.29;100.00;102172.47;1049796;28;20301;-82
2022/10/04 01:12:39;;;;;;;8.68;5.03;;;;;;;10.29;100.00;102164.47;1043554;28;20295;-83
2022/10/04 01:13:17;;;;;;;9.70;5.55;;;;;;;10.29;100.00;102165.31;1043426;28;20378;-82
2022/10/04 01:13:55;;;;;;;9.93;5.40;;;;;;;10.27;100.00;102169.16;1048365;28;20298;-83
2022/10/04 01:14:33;;;;;;;6.53;4.60;;;;;;;10.26;100.00;102156.84;1047310;28;20440;-82
2022/10/04 01:15:18;;;;;;;5.55;4.82;;;;;;;10.19;100.00;102162.88;1047782;28;20290;-83
2022/10/04 01:16:03;;;;;;;10.45;5.00;;;;;;;10.18;100.00;102155.06;1047979;28;20735;-83
2022/10/04 01:16:36;;;;;;;10.13;4.60;;;;;;;10.13;100.00;102152.09;1047849;28;20283;-83
2022/10/04 01:17:08;;;;;;;8.80;5.15;;;;;;;10.07;100.00;102148.34;1050879;28;20301;-84
2022/10/04 01:17:40;;;;;;;7.65;5.35;;;;;;;10.07;100.00;102153.66;1047300;28;20385;-83
2022/10/04 01:18:17;;;;;;;9.10;5.25;;;;;;;10.09;100.00;102150.81;1048554;28;20704;-83
2022/10/04 01:18:49;;;;;;;8.02;4.55;;;;;;;10.07;100.00;102152.81;1045536;28;20299;-83
2022/10/04 01:19:20;;;;;;;9.38;4.72;;;;;;;10.09;100.00;102150.81;1043455;28;20381;-83
2022/10/04 01:19:53;;;;;;;9.80;4.57;;;;;;;10.09;100.00;102150.81;1041712;28;20298;-83
2022/10/04 01:20:32;;;;;;;5.28;4.10;;;;;;;10.07;100.00;102148.34;1039747;28;20300;-83
2022/10/04 01:21:18;;;;;;;5.97;4.30;;;;;;;10.08;100.00;102147.31;1034549;28;20349;-83
2022/10/04 01:22:08;;;;;;;12.32;4.72;;;;;;;10.12;100.00;102151.28;1038709;28;20296;-83
2022/10/04 01:22:43;;;;;;;16.35;6.30;;;;;;;10.13;100.00;102142.28;1039362;28;20309;-83
2022/10/04 01:23:40;;;;;;;9.18;5.07;;;;;;;10.16;100.00;102147.25;1043350;28;20302;-83
2022/10/04 01:24:12;;;;;;;8.30;4.15;;;;;;;10.18;100.00;102145.25;1028262;28;20315;-83
2022/10/04 01:24:44;;;;;;;8.98;4.72;;;;;;;10.21;100.00;102138.75;1048930;28;20309;-83
2022/10/04 01:25:41;;;;;;;5.95;4.53;;;;;;;10.20;100.00;102142.41;1052667;28;20301;-83
2022/10/04 01:26:25;;;;;;;6.25;4.60;;;;;;;10.19;100.00;102144.25;1052006;28;20772;-83
2022/10/04 01:26:57;;;;;;;7.13;5.95;;;;;;;10.17;100.00;102143.59;1051869;28;20309;-83
2022/10/04 01:27:35;;;;;;;9.55;5.15;;;;;;;10.21;100.00;102139.59;1050907;28;20317;-82
2022/10/04 01:28:06;;;;;;;6.03;5.28;;;;;;;10.20;100.00;102142.41;1046546;28;20764;-83
2022/10/04 01:28:38;;;;;;;8.65;6.03;;;;;;;10.18;100.00;102144.41;1038812;28;20805;-83
2022/10/04 01:29:13;;;;;;;10.25;6.13;;;;;;;10.19;100.00;102138.91;1035531;28;20289;-83
2022/10/04 01:29:44;;;;;;;9.05;5.57;;;;;;;10.18;100.00;102139.91;1035066;28;20384;-83
2022/10/04 01:30:16;;;;;;;8.20;5.63;;;;;;;10.23;100.00;102138.56;1040005;28;20643;-83
2022/10/04 01:30:48;;;;;;;9.07;5.60;;;;;;;10.21;100.00;102139.59;1040561;28;20430;-83
2022/10/04 01:31:20;;;;;;;9.55;5.90;;;;;;;10.22;100.00;102145.75;1043645;28;20306;-83
2022/10/04 01:31:54;;;;;;;11.02;5.85;;;;;;;10.20;100.00;102140.59;1046898;28;20295;-83
2022/10/04 01:32:25;;;;;;;9.02;5.43;;;;;;;10.17;100.00;102138.28;1039878;28;20399;-83
2022/10/04 01:32:57;;;;;;;13.63;5.75;;;;;;;10.21;100.00;102134.25;1037488;28;20293;-83
2022/10/04 01:33:29;;;;;;;8.82;6.00;;;;;;;10.21;100.00;102134.25;1032468;28;20335;-82
2022/10/04 01:34:04;;;;;;;12.35;7.18;;;;;;;10.20;100.00;102139.75;1032105;28;20391;-83
2022/10/04 01:34:39;;;;;;;15.18;6.82;;;;;;;10.20;100.00;102137.94;1035973;28;20303;-83
2022/10/04 01:35:12;;;;;;;11.52;5.93;;;;;;;10.19;100.00;102146.06;1042734;28;20292;-83
2022/10/04 01:35:44;;;;;;;8.25;6.47;;;;;;;10.17;100.00;102138.28;1043482;28;20303;-83
2022/10/04 01:36:15;;;;;;;7.18;5.45;;;;;;;10.18;100.00;102141.75;1040610;28;20694;-83
2022/10/04 01:36:50;;;;;;;7.05;6.07;;;;;;;10.20;100.00;102143.25;1042893;28;20304;-83
2022/10/04 01:37:21;;;;;;;9.63;5.88;;;;;;;10.23;100.00;102147.38;1040223;28;20790;-83
2022/10/04 01:37:54;;;;;;;11.70;6.88;;;;;;;10.21;100.00;102136.09;1044056;28;20295;-83
2022/10/04 01:38:26;;;;;;;9.55;7.32;;;;;;;10.18;100.00;102145.25;1047414;28;20784;-83
2022/10/04 01:38:57;;;;;;;15.82;7.45;;;;;;;10.23;100.00;102144.72;1048494;28;20832;-83
2022/10/04 01:39:29;;;;;;;11.10;6.10;;;;;;;10.19;100.00;102140.75;1047468;28;20397;-83
2022/10/04 01:40:01;;;;;;;12.93;6.15;;;;;;;10.20;100.00;102143.25;1044986;28;20295;-83
2022/10/04 01:40:44;;;;;;;9.73;6.35;;;;;;;10.23;100.00;102142.06;1044440;28;20307;-82
2022/10/04 01:41:20;;;;;;;13.63;7.68;;;;;;;10.20;100.00;102143.25;1044113;28;20619;-83
2022/10/04 01:42:09;;;;;;;24.45;6.72;;;;;;;10.21;100.00;102144.91;1045880;28;20459;-83
2022/10/04 01:42:48;;;;;;;8.48;7.35;;;;;;;10.18;100.00;102142.59;1043180;28;20307;-83
2022/10/04 01:43:26;;;;;;;9.13;6.05;;;;;;;10.21;100.00;102139.59;1037856;28;20383;-82
2022/10/04 01:44:00;;;;;;;10.88;4.85;;;;;;;10.23;100.00;102141.25;1043313;28;20762;-83
2022/10/04 01:44:52;;;;;;;10.60;5.95;;;;;;;10.23;100.00;102146.56;1042195;28;20322;-83
2022/10/04 01:45:43;;;;;;;7.18;5.95;;;;;;;10.21;100.00;102139.59;1045707;28;20292;-83
2022/10/04 01:46:32;;;;;;;7.03;6.30;;;;;;;10.19;100.00;102138.91;1040194;28;20316;-83
2022/10/04 01:47:14;;;;;;;9.32;6.47;;;;;;;10.21;100.00;102136.94;1043141;28;20299;-83
2022/10/04 01:47:56;;;;;;;8.80;6.68;;;;;;;10.24;100.00;102138.41;1043066;28;20302;-83
2022/10/04 01:48:31;;;;;;;10.18;5.80;;;;;;;10.23;100.00;102133.25;1044515;28;20310;-83
2022/10/04 01:49:07;;;;;;;5.85;5.25;;;;;;;10.22;100.00;102135.09;1042911;28;20376;-84
2022/10/04 01:49:41;;;;;;;10.88;6.32;;;;;;;10.23;100.00;102130.59;1046427;28;20298;-84
2022/10/04 01:50:16;;;;;;;15.65;6.28;;;;;;;10.24;100.00;102133.06;1040593;28;20353;-83
2022/10/04 01:50:58;;;;;;;6.70;6.00;;;;;;;10.22;100.00;102132.44;1037569;28;21958;-83
2022/10/04 01:51:32;;;;;;;9.43;6.07;;;;;;;10.23;100.00;102127.94;1037702;28;20383;-84
2022/10/04 01:52:08;;;;;;;8.80;6.95;;;;;;;10.23;100.00;102133.25;1037452;28;20305;-83
2022/10/04 01:52:43;;;;;;;13.73;6.63;;;;;;;10.23;100.00;102125.25;1033899;28;20329;-83
2022/10/04 01:53:19;;;;;;;6.90;5.93;;;;;;;10.25;100.00;102128.56;1028799;28;20302;-84
2022/10/04 01:53:59;;;;;;;9.48;6.47;;;;;;;10.27;100.00;102127.38;1031316;28;20373;-83
2022/10/04 01:54:33;;;;;;;8.98;5.65;;;;;;;10.27;100.00;102114.06;1031880;28;20298;-83
2022/10/04 01:55:28;;;;;;;8.45;6.10;;;;;;;10.30;100.00;102123.50;1036008;28;20419;-83
2022/10/04 01:56:06;;;;;;;12.35;6.25;;;;;;;10.30;100.00;102124.34;1041107;28;20308;-83
2022/10/04 01:56:42;;;;;;;11.02;5.72;;;;;;;10.30;100.00;102126.19;1043720;28;20360;-83
2022/10/04 01:57:22;;;;;;;11.82;6.85;;;;;;;10.29;100.00;102124.53;1040913;28;20342;-83
2022/10/04 01:58:01;;;;;;;9.05;6.18;;;;;;;10.28;100.00;102128.19;1037260;28;20320;-83
2022/10/04 01:58:42;;;;;;;12.40;7.05;;;;;;;10.29;100.00;102129.84;1034763;28;20342;-83
2022/10/04 01:59:20;;;;;;;13.55;5.50;;;;;;;10.30;100.00;102132.34;1033647;28;20301;-83
2022/10/04 02:00:03;;;;;;;8.50;6.10;;;;;;;10.29;100.00;102130.69;1037877;28;20296;-83
2022/10/04 02:00:45;;;;;;;13.13;6.00;;;;;;;10.24;100.00;102135.72;1039143;28;20346;-83
2022/10/04 02:01:26;;;;;;;7.65;5.97;;;;;;;10.24;100.00;102129.56;1034759;28;20632;-83
2022/10/04 02:02:06;;;;;;;8.95;6.10;;;;;;;10.24;100.00;102132.25;1035055;28;20038;-83
2022/10/04 02:02:50;;;;;;;9.15;6.10;;;;;;;10.25;100.00;102129.41;1041409;28;20299;-83
2022/10/04 02:03:42;;;;;;;6.90;6.28;;;;;;;10.17;100.00;102130.28;1043174;28;20083;-83
2022/10/04 02:04:17;;;;;;;8.75;5.57;;;;;;;10.16;100.00;102141.94;1040540;28;20300;-83
2022/10/04 02:04:55;;;;;;;7.68;5.82;;;;;;;10.14;100.00;102135.97;1035061;28;20336;-83
2022/10/04 02:05:34;;;;;;;8.98;6.35;;;;;;;10.13;100.00;102130.78;1035068;28;20332;-83
2022/10/04 02:06:07;;;;;;;7.32;5.53;;;;;;;10.11;100.00;102124.84;1030082;28;20708;-83
2022/10/04 02:06:41;;;;;;;13.13;6.45;;;;;;;10.05;100.00;102134.38;1033166;28;20380;-83
2022/10/04 02:07:14;;;;;;;6.57;5.47;;;;;;;10.02;100.00;102124.09;1032872;28;20838;-83
2022/10/04 02:07:47;;;;;;;9.27;7.10;;;;;;;9.97;100.00;102121.16;1034649;28;20301;-83
2022/10/04 02:08:24;;;;;;;9.90;5.82;;;;;;;9.94;100.00;102115.38;1038999;28;20316;-83
2022/10/04 02:08:57;;;;;;;7.82;5.43;;;;;;;9.93;100.00;102114.53;1035296;28;20317;-83
2022/10/04 02:09:32;;;;;;;8.45;5.40;;;;;;;9.91;100.00;102111.22;1036690;28;20687;-83
2022/10/04 02:10:08;;;;;;;9.02;6.25;;;;;;;9.90;100.00;102113.06;1037352;28;20311;-83
2022/10/04 02:10:41;;;;;;;8.95;6.07;;;;;;;9.87;100.00;102109.94;1042852;28;20378;-83
2022/10/04 02:11:21;;;;;;;7.28;6.43;;;;;;;9.85;100.00;102109.28;1045212;28;20305;-83
2022/10/04 02:11:53;;;;;;;15.43;5.90;;;;;;;9.83;100.00;102108.63;1043353;28;20410;-83
2022/10/04 02:12:26;;;;;;;7.68;6.60;;;;;;;9.85;100.00;102114.59;1044590;28;20310;-83
2022/10/04 02:12:58;;;;;;;16.20;7.38;;;;;;;9.84;100.00;102107.63;1039449;28;20296;-83
2022/10/04 02:13:37;;;;;;;10.68;6.22;;;;;;;9.81;100.00;102122.09;1042190;28;20328;-83
2022/10/04 02:14:18;;;;;;;14.15;6.15;;;;;;;9.79;100.00;102113.47;1047011;28;20341;-83
2022/10/04 02:14:54;;;;;;;11.27;6.65;;;;;;;9.74;100.00;102107.06;1044673;28;20384;-83
2022/10/04 02:15:27;;;;;;;8.00;5.63;;;;;;;9.73;100.00;102110.72;1043912;28;20104;-83
2022/10/04 02:15:59;;;;;;;6.43;5.72;;;;;;;9.72;100.00;102109.91;1042875;28;20310;-83
2022/10/04 02:16:34;;;;;;;7.78;6.00;;;;;;;9.74;100.00;102107.06;1040624;28;20299;-83
2022/10/04 02:17:09;;;;;;;11.23;5.75;;;;;;;9.68;100.00;102102.44;1039943;28;20296;-83
2022/10/04 02:17:42;;;;;;;6.97;5.35;;;;;;;9.62;100.00;102105.84;1044916;28;20377;-83
2022/10/04 02:18:16;;;;;;;8.18;5.40;;;;;;;9.63;100.00;102102.16;1043141;28;20377;-83
2022/10/04 02:18:48;;;;;;;8.85;5.97;;;;;;;9.60;100.00;102101.53;1034087;28;20297;-83
2022/10/04 02:19:27;;;;;;;9.73;6.05;;;;;;;9.57;100.00;102101.03;1036297;28;20352;-83
2022/10/04 02:20:00;;;;;;;8.73;5.75;;;;;;;9.57;100.00;102101.03;1039067;28;20288;-83
2022/10/04 02:20:32;;;;;;;7.13;5.65;;;;;;;9.56;100.00;102100.19;1043742;28;20339;-84
2022/10/04 02:21:07;;;;;;;10.15;6.50;;;;;;;9.55;100.00;102098.53;1049160;28;20306;-83
2022/10/04 02:21:39;;;;;;;10.23;6.13;;;;;;;9.54;100.00;102096.91;1049375;28;20305;-84
2022/10/04 02:22:11;;;;;;;10.23;6.25;;;;;;;9.59;100.00;102102.53;1043595;28;20306;-83
2022/10/04 02:22:44;;;;;;;9.10;6.82;;;;;;;9.47;100.00;102097.78;1032848;28;20787;-83
2022/10/04 02:23:18;;;;;;;13.27;5.90;;;;;;;9.44;100.00;102095.50;1030809;28;20715;-83
2022/10/04 02:23:50;;;;;;;8.48;6.72;;;;;;;9.43;100.00;102096.50;1035734;28;20352;-83
2022/10/04 02:24:22;;;;;;;12.70;5.50;;;;;;;9.43;100.00;102097.31;1035051;28;20304;-83
2022/10/04 02:24:55;;;;;;;6.75;5.85;;;;;;;9.43;100.00;102097.31;1036760;28;20315;-83
2022/10/04 02:25:26;;;;;;;9.27;5.80;;;;;;;9.45;100.00;102094.50;1035802;28;20315;-84
2022/10/04 02:25:58;;;;;;;9.45;5.68;;;;;;;9.42;100.00;102089.53;1044436;28;20291;-83
2022/10/04 02:26:30;;;;;;;7.70;6.20;;;;;;;9.39;100.00;102084.56;1044300;28;20327;-83
2022/10/04 02:27:02;;;;;;;10.40;6.53;;;;;;;9.37;100.00;102103.34;1044782;28;20766;-83
2022/10/04 02:27:33;;;;;;;9.55;7.15;;;;;;;9.35;100.00;102089.41;1044110;28;20291;-83
2022/10/04 02:28:09;;;;;;;7.38;6.40;;;;;;;9.33;100.00;102099.41;1039680;28;20299;-83
2022/10/04 02:28:41;;;;;;;7.80;7.00;;;;;;;9.31;100.00;102085.44;1037282;28;20308;-83
2022/10/04 02:29:13;;;;;;;7.32;6.55;;;;;;;9.29;100.00;102090.09;1045069;28;20338;-84
2022/10/04 02:29:44;;;;;;;8.10;6.85;;;;;;;9.26;100.00;102090.47;1043933;28;20390;-83
2022/10/04 02:30:16;;;;;;;8.02;5.90;;;;;;;9.25;100.00;102088.81;1044025;28;20306;-83
2022/10/04 02:33:22;;;;;;;7.18;6.47;;;;;;;9.19;100.00;102084.19;1047920;28;20289;-83
2022/10/04 02:33:55;;;;;;;6.82;5.80;;;;;;;9.18;100.00;102082.53;1044375;28;20338;-83
2022/10/04 02:34:27;;;;;;;11.63;5.80;;;;;;;9.19;100.00;102084.19;1041043;28;20358;-83
2022/10/04 02:34:59;;;;;;;7.72;6.78;;;;;;;9.18;100.00;102080.72;1042975;28;20342;-83
2022/10/04 02:35:35;;;;;;;11.68;6.70;;;;;;;9.18;100.00;102078.06;1040286;28;20300;-83
2022/10/04 02:36:08;;;;;;;7.28;5.97;;;;;;;9.18;100.00;102083.38;1039116;28;20284;-83
2022/10/04 02:36:40;;;;;;;12.15;6.72;;;;;;;9.17;100.00;102080.91;1030688;28;20309;-83
2022/10/04 02:37:13;;;;;;;9.57;6.55;;;;;;;9.16;100.00;102081.91;1028993;28;20425;-82
2022/10/04 02:37:47;;;;;;;8.90;6.25;;;;;;;9.11;100.00;102076.28;1029117;28;20376;-83
2022/10/04 02:38:22;;;;;;;6.75;6.07;;;;;;;9.11;100.00;102082.44;1038089;28;20296;-83
2022/10/04 02:39:02;;;;;;;13.40;6.50;;;;;;;9.11;100.00;102084.25;1044688;28;20303;-83
2022/10/04 02:39:37;;;;;;;17.17;7.05;;;;;;;9.10;100.00;102085.25;1051018;28;20303;-83
2022/10/04 02:40:15;;;;;;;9.32;7.15;;;;;;;9.10;100.00;102085.25;1043874;28;20101;-83
2022/10/04 02:41:01;;;;;;;10.02;6.55;;;;;;;9.07;100.00;102081.13;1042113;28;20302;-83
2022/10/04 02:41:42;;;;;;;9.88;7.18;;;;;;;9.06;100.00;102086.63;1039381;28;20314;-83
2022/10/04 02:42:48;;;;;;;7.35;6.75;;;;;;;9.03;100.00;102089.59;1043595;28;20331;-84
2022/10/04 02:43:34;;;;;;;11.85;6.93;;;;;;;8.89;100.00;102088.53;1042356;28;20303;-83
2022/10/04 02:44:17;;;;;;;9.60;6.32;;;;;;;8.93;100.00;102087.19;1045289;28;20298;-84
2022/10/04 02:44:55;;;;;;;7.47;6.63;;;;;;;8.90;100.00;102084.88;1039883;28;20762;-83
2022/10/04 02:45:39;;;;;;;11.30;6.45;;;;;;;8.92;100.00;102081.03;1045982;28;20361;-83
2022/10/04 02:46:15;;;;;;;12.55;6.65;;;;;;;8.90;100.00;102085.69;1052252;28;20297;-83
2022/10/04 02:47:05;;;;;;;10.98;7.43;;;;;;;8.89;100.00;102086.72;1048093;28;20377;-83
2022/10/04 02:47:44;;;;;;;13.68;7.38;;;;;;;8.89;100.00;102084.06;1041506;28;20350;-83
2022/10/04 02:48:29;;;;;;;8.65;6.32;;;;;;;8.91;100.00;102076.72;1039846;28;20292;-83
2022/10/04 02:49:05;;;;;;;7.90;7.18;;;;;;;8.92;100.00;102082.88;1039768;28;20292;-83
2022/10/04 02:49:45;;;;;;;8.40;7.45;;;;;;;8.89;100.00;102078.72;1035366;28;20296;-83
2022/10/04 02:50:19;;;;;;;9.88;6.95;;;;;;;8.74;100.00;102069.84;1041563;28;20388;-83
2022/10/04 02:50:52;;;;;;;8.02;7.22;;;;;;;8.70;100.00;102071.19;1044027;28;20033;-83
2022/10/04 02:51:46;;;;;;;13.98;8.02;;;;;;;8.77;100.00;102074.81;1033698;28;20379;-83
2022/10/04 02:52:33;;;;;;;8.02;7.18;;;;;;;8.73;100.00;102070.84;1043956;28;20299;-83
2022/10/04 02:53:25;;;;;;;6.93;6.18;;;;;;;8.73;100.00;102073.50;1041085;28;20310;-83
2022/10/04 02:54:10;;;;;;;14.65;6.97;;;;;;;8.72;100.00;102065.69;1043831;28;20295;-83
2022/10/04 02:54:54;;;;;;;10.25;6.50;;;;;;;8.68;100.00;102067.88;1044539;28;20330;-84
2022/10/04 02:55:27;;;;;;;7.68;6.78;;;;;;;8.69;100.00;102061.56;1039345;28;20694;-83
2022/10/04 02:56:01;;;;;;;12.30;6.47;;;;;;;8.68;100.00;102066.03;1035616;28;20324;-83
2022/10/04 02:56:33;;;;;;;8.73;6.53;;;;;;;8.67;100.00;102058.25;1035603;28;20439;-82
2022/10/04 02:57:12;;;;;;;7.57;6.65;;;;;;;8.65;100.00;102054.94;1032768;28;20367;-83
2022/10/04 02:57:44;;;;;;;9.43;6.78;;;;;;;8.63;100.00;102054.28;1035917;28;20300;-83
2022/10/04 02:58:18;;;;;;;9.90;6.50;;;;;;;8.61;100.00;102056.31;1040523;28;20798;-83
2022/10/04 02:58:51;;;;;;;7.43;6.45;;;;;;;8.59;100.00;102051.16;1043708;28;20352;-83